createdAt,value
2019-02-14T11:27:45.707Z,4.10
2019-02-14T11:30:16.114Z,3.10
2019-02-14T11:32:44.527Z,1.00
2019-02-14T11:37:42.529Z,1.00
2019-02-14T11:40:13.420Z,1.00
2019-02-14T11:42:45.511Z,1.00
2019-02-14T11:45:22.962Z,1.00
2019-02-14T11:47:51.382Z,1.00
2019-02-14T11:50:19.812Z,1.00
2019-02-14T15:48:27.563Z,7.00
2019-02-14T15:50:56.766Z,7.50
2019-02-14T15:53:25.369Z,8.30
2019-02-14T15:55:53.864Z,9.10
2019-02-14T15:58:22.318Z,9.30
2019-02-14T16:00:51.895Z,9.80
2019-02-14T16:03:20.915Z,10.20
2019-02-14T16:05:49.587Z,10.90
2019-02-14T16:08:19.653Z,9.90
2019-02-14T16:10:49.695Z,7.70
2019-02-14T16:13:18.745Z,7.50
2019-02-14T16:15:47.162Z,8.00
2019-02-14T16:20:44.341Z,11.50
2019-02-14T16:23:13.025Z,12.50
2019-02-14T16:25:41.434Z,12.10
2019-02-14T16:28:11.505Z,12.90
2019-02-14T16:30:40.285Z,14.50
2019-02-14T16:33:08.728Z,15.40
2019-02-14T16:35:37.160Z,16.50
2019-02-14T16:38:05.594Z,17.00
2019-02-14T16:40:38.692Z,18.20
2019-02-14T16:43:04.613Z,19.20
2019-02-14T16:45:33.042Z,20.00
2019-02-14T16:48:01.528Z,21.10
2019-02-14T16:50:30.013Z,22.20
2019-02-14T16:52:58.694Z,23.10
2019-02-14T16:55:27.402Z,24.00
2019-02-14T16:57:55.843Z,24.50
2019-02-14T17:00:24.267Z,25.40
2019-02-14T17:02:52.703Z,26.80
2019-02-14T17:05:21.399Z,28.10
2019-02-14T17:07:49.834Z,29.10
2019-02-14T17:10:18.500Z,30.90
2019-02-14T17:12:46.965Z,31.90
2019-02-14T17:15:15.646Z,33.40
2019-02-14T17:17:44.120Z,35.10
2019-02-14T17:20:12.845Z,36.30
2019-02-14T17:22:41.309Z,38.70
2019-02-14T17:25:09.813Z,40.60
2019-02-14T17:27:38.519Z,42.10
2019-02-14T17:30:08.947Z,43.90
2019-02-14T17:32:37.372Z,45.60
2019-02-14T17:35:06.914Z,47.70
2019-02-14T17:37:35.579Z,49.80
2019-02-14T17:40:06.666Z,51.90
2019-02-14T17:42:35.105Z,54.40
2019-02-14T17:45:03.709Z,56.90
2019-02-14T17:47:32.158Z,58.70
2019-02-14T17:50:00.672Z,61.40
2019-02-14T17:52:29.114Z,64.00
2019-02-14T17:54:57.555Z,65.60
2019-02-14T17:57:25.993Z,67.80
2019-02-14T17:59:54.448Z,70.10
2019-02-14T18:02:46.296Z,71.40
2019-02-14T18:05:18.730Z,73.10
2019-02-14T18:07:47.186Z,75.70
2019-02-14T18:10:24.742Z,77.20
2019-02-14T18:12:53.434Z,77.60
2019-02-14T18:15:22.229Z,78.10
2019-02-14T18:17:50.731Z,78.70
2019-02-14T18:20:19.188Z,80.10
2019-02-14T18:22:47.666Z,80.90
2019-02-14T18:25:16.117Z,81.10
2019-02-14T18:27:44.543Z,81.40
2019-02-14T18:30:13.222Z,83.00
2019-02-14T18:32:41.703Z,83.40
2019-02-14T18:35:11.496Z,84.20
2019-02-14T18:37:39.992Z,84.80
2019-02-14T18:40:10.211Z,85.30
2019-02-14T18:42:43.695Z,85.70
2019-02-14T18:45:13.426Z,85.90
2019-02-14T18:47:41.859Z,85.90
2019-02-14T18:50:13.793Z,85.90
2019-02-14T18:52:42.363Z,86.00
2019-02-14T18:55:11.442Z,86.00
2019-02-14T18:57:39.893Z,86.70
2019-02-14T19:00:16.619Z,87.00
2019-02-14T19:02:45.068Z,87.10
2019-02-14T19:05:13.549Z,87.00
2019-02-14T19:07:41.983Z,86.90
2019-02-14T19:10:14.983Z,87.90
2019-02-14T19:12:43.413Z,87.70
2019-02-14T19:15:13.001Z,88.30
2019-02-14T19:17:41.437Z,88.10
2019-02-14T19:20:11.022Z,88.40
2019-02-14T19:22:40.700Z,88.60
2019-02-14T19:25:09.317Z,88.90
2019-02-14T19:27:38.027Z,89.30
2019-02-14T19:30:09.304Z,90.40
2019-02-14T19:32:37.857Z,90.20
2019-02-14T19:35:08.617Z,90.50
2019-02-14T19:37:37.123Z,90.60
2019-02-14T19:40:07.926Z,90.70
2019-02-14T19:42:36.410Z,90.80
2019-02-14T19:45:08.071Z,91.00
2019-02-14T19:47:36.724Z,91.10
2019-02-14T19:50:08.314Z,91.70
2019-02-14T19:52:36.814Z,91.70
2019-02-14T19:55:07.350Z,91.50
2019-02-14T19:57:35.865Z,91.30
2019-02-14T20:00:12.732Z,91.60
2019-02-14T20:02:41.293Z,91.60
2019-02-14T20:05:10.265Z,91.80
2019-02-14T20:07:38.695Z,92.40
2019-02-14T20:10:12.249Z,92.60
2019-02-14T20:12:40.684Z,92.70
2019-02-14T20:15:14.075Z,92.40
2019-02-14T20:17:42.511Z,92.30
2019-02-14T20:20:11.019Z,92.40
2019-02-14T20:22:39.454Z,92.50
2019-02-14T20:25:13.967Z,92.70
2019-02-14T20:27:42.655Z,92.80
2019-02-14T20:30:11.240Z,93.10
2019-02-14T20:32:39.902Z,93.20
2019-02-14T20:35:09.346Z,93.50
2019-02-14T20:37:37.785Z,94.20
2019-02-14T20:40:09.042Z,94.30
2019-02-14T20:42:37.678Z,94.00
2019-02-14T20:45:08.884Z,94.00
2019-02-14T20:47:37.523Z,94.10
2019-02-14T20:50:09.761Z,94.10
2019-02-14T20:52:38.206Z,94.10
2019-02-14T20:55:09.823Z,94.20
2019-02-14T20:57:38.513Z,94.10
2019-02-14T21:00:11.727Z,94.70
2019-02-14T21:02:40.158Z,95.00
2019-02-14T21:05:08.651Z,95.00
2019-02-14T21:07:37.072Z,94.80
2019-02-14T21:10:06.944Z,94.80
2019-02-14T21:12:35.369Z,94.90
2019-02-14T21:15:04.458Z,95.10
2019-02-14T21:17:32.894Z,95.60
2019-02-14T21:20:01.564Z,95.70
2019-02-14T21:22:29.987Z,95.70
2019-02-14T21:24:58.426Z,95.60
2019-02-14T21:27:27.133Z,95.50
2019-02-14T21:29:55.863Z,95.40
2019-02-14T21:32:24.589Z,95.50
2019-02-14T21:34:53.058Z,96.00
2019-02-14T21:37:21.545Z,95.90
2019-02-14T21:39:50.232Z,96.00
2019-02-14T21:42:22.068Z,96.20
2019-02-14T21:44:49.060Z,96.20
2019-02-14T21:47:17.475Z,96.40
2019-02-14T21:49:45.915Z,96.60
2019-02-14T21:52:14.655Z,96.70
2019-02-14T21:54:43.087Z,96.80
2019-02-14T21:57:11.746Z,96.90
2019-02-14T21:59:40.192Z,96.90
2019-02-14T22:02:08.869Z,97.00
2019-02-14T22:04:37.363Z,97.40
2019-02-14T22:07:06.117Z,97.50
2019-02-14T22:09:34.818Z,97.50
2019-02-14T22:12:03.285Z,97.50
2019-02-14T22:14:31.722Z,97.70
2019-02-14T22:17:00.358Z,97.70
2019-02-14T22:19:28.822Z,98.20
2019-02-14T22:21:57.243Z,98.20
2019-02-14T22:24:25.671Z,98.50
2019-02-14T22:26:54.336Z,98.70
2019-02-14T22:29:24.509Z,98.60
2019-02-14T22:31:53.121Z,98.40
2019-02-14T22:34:21.586Z,98.20
2019-02-14T22:36:50.005Z,98.10
2019-02-14T22:39:18.450Z,98.10
2019-02-14T22:41:47.117Z,98.10
2019-02-14T22:44:15.550Z,98.20
2019-02-14T22:46:43.968Z,98.10
2019-02-14T22:49:12.399Z,98.00
2019-02-14T22:51:40.807Z,98.00
2019-02-14T22:54:09.247Z,98.10
2019-02-14T22:56:57.008Z,98.20
2019-02-14T22:59:25.499Z,98.80
2019-02-14T23:01:54.212Z,99.00
2019-02-14T23:04:22.679Z,99.00
2019-02-14T23:06:51.098Z,99.00
2019-02-14T23:09:19.885Z,99.10
2019-02-14T23:11:48.298Z,99.00
2019-02-14T23:14:16.966Z,98.90
2019-02-14T23:16:45.395Z,98.90
2019-02-14T23:19:13.814Z,99.00
2019-02-14T23:21:42.280Z,99.00
2019-02-14T23:24:10.974Z,98.90
2019-02-14T23:26:39.614Z,98.90
2019-02-14T23:29:08.070Z,98.90
2019-02-14T23:31:36.497Z,99.10
2019-02-14T23:34:04.914Z,98.80
2019-02-14T23:36:33.562Z,98.90
2019-02-14T23:39:02.267Z,98.90
2019-02-14T23:41:30.694Z,99.10
2019-02-14T23:43:59.370Z,99.30
2019-02-14T23:46:28.047Z,99.20
2019-02-14T23:48:56.706Z,99.40
2019-02-14T23:51:25.134Z,99.50
2019-02-14T23:53:53.554Z,99.60
2019-02-14T23:56:22.195Z,99.50
2019-02-14T23:58:50.646Z,99.90
